Myra Eckstein — WDF9473 — position and weather

sailwx.info

Track history (hours):
 
Tides and Currents Weather Stations Pressure Air Temp Water Temp Dewpoint Dewpoint Depression Visibility Wind Speed Wind Dir Waves Ship Positions

Myra Eckstein

Owner: Marquette Transportation Co. LLC, Paducah, KY. More information available from US FCC via Universal Licensing System and Coast Guard Vessel Documentation Center.

Last reported at 2016-Apr-30 17:25 UTC. Time now 2016-May-02 03:38 UTC.
Position N 31°59' W 091°07'.

Length 47 m; draft 3.5 m.

Type: Towing. MMSI: 367505510.

Date/timePositionNaut miles runAvg speedWind from/ knotsBaromVisibWave heightAir tempDewpointWater temp
2016-Apr-30 17:25N 31°59' W 091°07'7 7.5
2016-Apr-30 16:33N 32°05' W 091°05'4 4.3
2016-Apr-30 15:33N 32°08' W 091°01'9 9.4
2016-Apr-30 14:33N 32°17' W 090°57'5 4.5
2016-Apr-30 13:33N 32°21' W 090°57'0 0.0
2016-Apr-30 12:33N 32°21' W 090°57'0 0.0
2016-Apr-30 11:33N 32°21' W 090°57'0 0.0
2016-Apr-30 10:33N 32°21' W 090°57'3 3.2
2016-Apr-30 09:33N 32°23' W 090°60'7 6.9
2016-Apr-30 08:33N 32°28' W 091°06'8 8.1
2016-Apr-30 07:33N 32°36' W 091°08'  
Track history (hours):
 
Tides and Currents Weather Stations Pressure Air Temp Water Temp Dewpoint Dewpoint Depression Visibility Wind Speed Wind Dir Waves Ship Positions

Myra Eckstein

Owner: Marquette Transportation Co. LLC, Paducah, KY. More information available from US FCC via Universal Licensing System and Coast Guard Vessel Documentation Center.

Last reported at 2016-Apr-30 17:25 UTC. Time now 2016-May-02 03:38 UTC.
Position N 31°59' W 091°07'.

Length 47 m; draft 3.5 m.

Type: Towing. MMSI: 367505510.

Date/timePositionNaut miles runAvg speedWind from/ knotsBaromVisibWave heightAir tempDewpointWater temp
2016-Apr-30 17:25N 31°59' W 091°07'7 7.5
2016-Apr-30 16:33N 32°05' W 091°05'4 4.3
2016-Apr-30 15:33N 32°08' W 091°01'9 9.4
2016-Apr-30 14:33N 32°17' W 090°57'5 4.5
2016-Apr-30 13:33N 32°21' W 090°57'0 0.0
2016-Apr-30 12:33N 32°21' W 090°57'0 0.0
2016-Apr-30 11:33N 32°21' W 090°57'0 0.0
2016-Apr-30 10:33N 32°21' W 090°57'3 3.2
2016-Apr-30 09:33N 32°23' W 090°60'7 6.9
2016-Apr-30 08:33N 32°28' W 091°06'8 8.1
2016-Apr-30 07:33N 32°36' W 091°08'  

Dump ship's entire track history